Time;durP1;ratioP1;P1;durP2;ratioP2;P2;SDS_P1;SDS_P2;PMS_P1;PMS_P2;Temp;Humidity;BMP_temperature;BMP_pressure;BME280_temperature;BME280_humidity;BME280_pressure;Samples;Min_cycle;Max_cycle;Signal;HPM_P1;HPM_P2
2022/08/18 00:05:24;;;;;;;24.67;14.23;;;18.30;99.90;;;;;;4909828;29;20102;-53
2022/08/18 00:07:50;;;;;;;21.92;13.32;;;18.30;99.90;;;;;;4922613;29;20494;-50
2022/08/18 00:10:17;;;;;;;27.65;12.90;;;18.30;99.90;;;;;;4912209;28;20118;-54
2022/08/18 00:12:43;;;;;;;20.83;14.27;;;18.40;99.90;;;;;;4919654;29;20119;-51
2022/08/18 00:15:13;;;;;;;22.65;12.90;;;18.40;99.90;;;;;;4904847;29;20056;-55
2022/08/18 00:17:40;;;;;;;21.92;12.75;;;18.40;99.90;;;;;;4921461;29;20094;-54
2022/08/18 00:20:12;;;;;;;26.17;13.85;;;18.40;99.90;;;;;;4909311;29;20090;-53
2022/08/18 00:22:39;;;;;;;28.33;13.63;;;18.40;99.90;;;;;;4918718;28;20106;-53
2022/08/18 00:25:08;;;;;;;23.70;13.45;;;18.40;99.90;;;;;;4913120;29;20090;-54
2022/08/18 00:27:36;;;;;;;23.00;12.98;;;18.50;99.90;;;;;;4915517;29;20044;-52
2022/08/18 00:30:10;;;;;;;23.00;12.18;;;18.40;99.90;;;;;;4916352;29;20055;-53
2022/08/18 00:32:49;;;;;;;24.88;13.20;;;18.40;99.90;;;;;;4921595;29;20684;-54
2022/08/18 00:35:28;;;;;;;25.23;12.48;;;18.40;99.90;;;;;;4917098;29;20051;-54
2022/08/18 00:37:57;;;;;;;21.10;13.30;;;18.50;99.90;;;;;;4913940;29;20105;-53
2022/08/18 00:40:28;;;;;;;18.70;13.05;;;18.50;99.90;;;;;;4917996;29;20051;-53
2022/08/18 00:42:58;;;;;;;28.25;14.77;;;18.40;99.90;;;;;;4916830;29;20827;-54
2022/08/18 00:45:31;;;;;;;18.60;13.30;;;18.40;99.90;;;;;;4912504;29;20466;-51
2022/08/18 00:47:58;;;;;;;22.48;13.57;;;18.40;99.90;;;;;;4920135;29;20071;-53
2022/08/18 00:50:47;;;;;;;23.80;13.73;;;18.40;99.90;;;;;;4923059;29;20052;-51
2022/08/18 00:53:35;;;;;;;23.33;12.77;;;18.40;99.90;;;;;;4924053;29;20063;-53
2022/08/18 00:56:24;;;;;;;23.83;12.93;;;18.50;99.90;;;;;;4914557;28;20047;-54
2022/08/18 00:58:57;;;;;;;23.45;13.43;;;18.50;99.90;;;;;;4914946;29;20070;-53
2022/08/18 01:01:28;;;;;;;23.52;11.90;;;18.50;99.90;;;;;;4916174;29;20055;-53
2022/08/18 01:04:04;;;;;;;30.77;13.50;;;18.50;99.90;;;;;;4915192;29;20079;-52
2022/08/18 01:07:05;;;;;;;26.63;13.98;;;18.40;99.90;;;;;;4918546;29;20137;-53
2022/08/18 01:09:31;;;;;;;20.70;11.32;;;18.40;99.90;;;;;;4908220;29;20058;-55
2022/08/18 01:11:57;;;;;;;23.05;12.73;;;18.40;99.90;;;;;;4911183;29;20064;-54
2022/08/18 01:14:23;;;;;;;33.60;14.25;;;18.50;99.90;;;;;;4913598;29;20102;-49
2022/08/18 01:22:49;;;;;;;25.52;13.63;;;18.40;99.90;;;;;;4916312;29;20134;-54
2022/08/18 01:28:05;;;;;;;23.35;13.25;;;18.30;99.90;;;;;;4964253;28;20054;-52
2022/08/18 01:30:45;;;;;;;18.10;13.02;;;18.50;99.90;;;;;;4915507;29;20048;-54
2022/08/18 01:33:11;;;;;;;22.67;14.27;;;18.50;99.90;;;;;;4920589;29;20052;-51
2022/08/18 01:35:39;;;;;;;24.33;15.30;;;18.40;99.90;;;;;;4918148;29;20465;-54
2022/08/18 01:38:06;;;;;;;23.60;13.60;;;18.40;99.90;;;;;;4913109;29;20100;-58
2022/08/18 01:40:32;;;;;;;27.02;14.05;;;18.30;99.90;;;;;;4911499;29;20056;-54
2022/08/18 01:43:02;;;;;;;21.83;14.45;;;18.40;99.90;;;;;;4919772;29;20066;-54
2022/08/18 01:45:29;;;;;;;21.77;13.68;;;18.40;99.90;;;;;;4915479;28;20048;-53
2022/08/18 01:47:58;;;;;;;26.73;14.60;;;18.40;99.90;;;;;;4913745;29;20055;-52
2022/08/18 01:50:24;;;;;;;21.35;14.73;;;18.30;99.90;;;;;;4917155;29;20403;-54
2022/08/18 01:52:52;;;;;;;23.13;14.40;;;18.30;99.90;;;;;;4910850;29;20078;-54
2022/08/18 01:55:19;;;;;;;29.92;14.85;;;18.30;99.90;;;;;;4915666;29;20051;-53
2022/08/18 01:57:46;;;;;;;21.80;14.13;;;18.30;99.90;;;;;;4916786;29;20054;-54
2022/08/18 02:00:15;;;;;;;24.42;15.38;;;18.40;99.90;;;;;;4924896;28;20392;-52
2022/08/18 02:02:42;;;;;;;22.35;15.65;;;18.30;99.90;;;;;;4916430;29;20051;-52
2022/08/18 02:05:30;;;;;;;21.33;14.80;;;18.30;99.90;;;;;;4911152;29;20044;-54
2022/08/18 02:07:56;;;;;;;22.13;15.85;;;18.30;99.90;;;;;;4919929;29;20059;-53
2022/08/18 02:10:23;;;;;;;21.10;15.43;;;18.30;99.90;;;;;;4916889;29;20064;-53
2022/08/18 02:12:49;;;;;;;24.98;17.13;;;18.30;99.90;;;;;;4914342;29;20132;-53
2022/08/18 02:15:15;;;;;;;25.02;16.38;;;18.40;99.90;;;;;;4905340;29;20052;-54
2022/08/18 02:17:44;;;;;;;22.13;15.90;;;18.30;99.90;;;;;;4919972;29;20055;-51
2022/08/18 02:20:14;;;;;;;28.63;15.88;;;18.30;99.90;;;;;;4915830;29;20131;-53
2022/08/18 02:22:41;;;;;;;25.60;16.23;;;18.30;99.90;;;;;;4917584;29;20079;-51
2022/08/18 02:25:08;;;;;;;20.40;15.00;;;18.30;99.90;;;;;;4910664;29;20054;-54
2022/08/18 02:27:34;;;;;;;21.92;16.63;;;18.30;99.90;;;;;;4923942;29;20058;-52
2022/08/18 02:30:06;;;;;;;23.15;16.38;;;18.30;99.90;;;;;;4913916;29;20064;-51
2022/08/18 02:32:32;;;;;;;19.70;16.30;;;18.30;99.90;;;;;;4915228;29;20062;-51
2022/08/18 02:34:59;;;;;;;22.05;17.08;;;18.30;99.90;;;;;;4915120;28;20055;-52
2022/08/18 02:37:25;;;;;;;25.55;17.00;;;18.40;99.90;;;;;;4908331;29;20052;-53
2022/08/18 02:39:52;;;;;;;19.77;16.35;;;18.40;99.90;;;;;;4908818;29;20609;-53
2022/08/18 02:42:18;;;;;;;20.38;15.65;;;18.30;99.90;;;;;;4920080;29;20062;-52
2022/08/18 02:44:44;;;;;;;23.00;17.08;;;18.30;99.90;;;;;;4912752;29;20056;-53
2022/08/18 02:47:10;;;;;;;24.38;17.48;;;18.30;99.90;;;;;;4920682;29;20055;-52
2022/08/18 02:49:41;;;;;;;20.73;17.58;;;18.30;99.90;;;;;;4903627;29;20079;-53
2022/08/18 02:52:08;;;;;;;23.83;16.77;;;18.30;99.90;;;;;;4910810;28;20062;-53
2022/08/18 02:54:35;;;;;;;20.58;16.63;;;18.30;99.90;;;;;;4920834;29;20074;-51
2022/08/18 02:57:07;;;;;;;19.33;17.38;;;18.30;99.90;;;;;;4922648;29;20051;-54
2022/08/18 02:59:33;;;;;;;22.75;19.00;;;18.30;99.90;;;;;;4921244;29;20533;-53
2022/08/18 03:01:59;;;;;;;21.83;16.90;;;18.30;99.90;;;;;;4911681;29;20062;-53
2022/08/18 03:04:29;;;;;;;23.42;18.60;;;18.20;99.90;;;;;;4917549;29;20057;-52
2022/08/18 03:06:57;;;;;;;24.48;19.48;;;18.20;99.90;;;;;;4907092;29;20087;-54
2022/08/18 03:09:23;;;;;;;22.85;18.98;;;18.30;99.90;;;;;;4909570;29;20051;-51
2022/08/18 03:11:50;;;;;;;22.73;18.05;;;18.30;99.90;;;;;;4905867;29;20075;-51
2022/08/18 03:14:17;;;;;;;21.75;18.40;;;18.30;99.90;;;;;;4905441;29;20050;-54
2022/08/18 03:16:46;;;;;;;20.60;18.33;;;18.30;99.90;;;;;;4914339;29;20059;-52
2022/08/18 03:19:15;;;;;;;22.08;19.45;;;18.30;99.90;;;;;;4911946;29;20069;-53
2022/08/18 03:21:43;;;;;;;25.95;19.88;;;18.30;99.90;;;;;;4920305;29;20059;-54
2022/08/18 03:24:11;;;;;;;24.25;20.05;;;18.30;99.90;;;;;;4918766;29;20083;-55
2022/08/18 03:26:44;;;;;;;22.08;18.50;;;18.40;99.90;;;;;;4916305;29;20511;-50
2022/08/18 03:29:11;;;;;;;29.65;21.52;;;18.30;99.90;;;;;;4915446;29;20060;-53
2022/08/18 03:31:37;;;;;;;24.23;19.38;;;18.30;99.90;;;;;;4914443;29;20075;-52
2022/08/18 03:34:07;;;;;;;27.75;19.88;;;18.30;99.90;;;;;;4921158;29;20423;-51
2022/08/18 03:36:35;;;;;;;26.15;19.95;;;18.30;99.90;;;;;;4922762;29;20121;-51
2022/08/18 03:39:08;;;;;;;28.27;20.85;;;18.30;99.90;;;;;;4906969;29;20143;-55
2022/08/18 03:41:36;;;;;;;24.88;20.60;;;18.30;99.90;;;;;;4910873;29;20497;-52
2022/08/18 03:44:02;;;;;;;22.52;19.67;;;18.30;99.90;;;;;;4920698;29;20056;-52
2022/08/18 03:46:28;;;;;;;22.52;20.13;;;18.40;99.90;;;;;;4910921;29;20122;-53
2022/08/18 03:48:57;;;;;;;24.13;20.70;;;18.40;99.90;;;;;;4912527;29;20051;-53
2022/08/18 03:51:25;;;;;;;25.20;20.13;;;18.30;99.90;;;;;;4921697;29;20051;-52
2022/08/18 03:53:53;;;;;;;22.77;20.10;;;18.40;99.90;;;;;;4912396;29;20147;-53
2022/08/18 03:56:23;;;;;;;23.25;20.25;;;18.40;99.90;;;;;;4912619;29;20059;-53
2022/08/18 03:58:53;;;;;;;25.08;19.55;;;18.40;99.90;;;;;;4906198;29;20139;-52
2022/08/18 04:01:21;;;;;;;23.13;20.90;;;18.40;99.90;;;;;;4907804;28;20052;-54
2022/08/18 04:03:51;;;;;;;24.40;20.30;;;18.30;99.90;;;;;;4914411;29;20064;-53
2022/08/18 04:06:23;;;;;;;23.23;20.40;;;18.40;99.90;;;;;;4915949;29;20052;-54
2022/08/18 04:08:55;;;;;;;24.05;20.20;;;18.40;99.90;;;;;;4905221;28;20052;-51
2022/08/18 04:11:21;;;;;;;22.85;20.35;;;18.40;99.90;;;;;;4918889;29;20170;-53
2022/08/18 04:13:48;;;;;;;21.38;19.27;;;18.30;99.90;;;;;;4920149;28;20202;-53
2022/08/18 04:16:15;;;;;;;22.33;19.95;;;18.30;99.90;;;;;;4909486;28;20059;-53
2022/08/18 04:18:41;;;;;;;23.30;19.83;;;18.30;99.90;;;;;;4917454;29;20048;-53
2022/08/18 04:21:12;;;;;;;22.95;19.75;;;18.40;99.90;;;;;;4908747;28;20514;-54
2022/08/18 04:23:40;;;;;;;24.17;21.00;;;18.30;99.90;;;;;;4910716;29;20056;-53
2022/08/18 04:26:08;;;;;;;25.77;20.70;;;18.40;99.90;;;;;;4905412;29;20090;-54
2022/08/18 04:28:34;;;;;;;26.17;20.33;;;18.40;99.90;;;;;;4905507;28;20052;-50
2022/08/18 04:31:07;;;;;;;28.58;21.60;;;18.40;99.90;;;;;;4920607;29;20051;-54
2022/08/18 04:33:33;;;;;;;23.58;21.13;;;18.40;99.90;;;;;;4919456;29;20056;-52
2022/08/18 04:36:07;;;;;;;24.42;21.67;;;18.50;99.90;;;;;;4911293;28;20093;-51
2022/08/18 04:38:33;;;;;;;26.25;23.40;;;18.40;99.90;;;;;;4911602;29;20048;-50
2022/08/18 04:41:00;;;;;;;26.52;22.85;;;18.40;99.90;;;;;;4911442;28;20131;-53
2022/08/18 04:43:26;;;;;;;27.35;23.67;;;18.30;99.90;;;;;;4909910;29;20210;-51
2022/08/18 04:45:52;;;;;;;26.80;23.73;;;18.30;99.90;;;;;;4914305;28;20052;-54
2022/08/18 04:48:19;;;;;;;27.23;23.85;;;18.40;99.90;;;;;;4916663;29;20056;-54
2022/08/18 04:50:45;;;;;;;25.60;22.88;;;18.40;99.90;;;;;;4925305;29;20048;-51
2022/08/18 04:55:56;;;;;;;29.65;25.58;;;18.30;99.90;;;;;;4925712;29;20063;-52
2022/08/18 04:58:23;;;;;;;26.30;21.92;;;18.30;99.90;;;;;;4925636;29;20040;-53
2022/08/18 05:00:57;;;;;;;28.92;22.20;;;18.30;99.90;;;;;;4923770;29;20093;-50
2022/08/18 05:03:40;;;;;;;24.92;22.17;;;18.40;99.90;;;;;;4924825;29;20051;-52
2022/08/18 05:06:06;;;;;;;24.92;22.45;;;18.30;99.90;;;;;;4911809;28;20147;-52
2022/08/18 05:08:32;;;;;;;23.42;21.00;;;18.50;99.90;;;;;;4905548;29;20057;-53
2022/08/18 05:10:59;;;;;;;25.77;21.38;;;18.40;99.90;;;;;;4919415;29;20055;-54
2022/08/18 05:13:29;;;;;;;22.95;20.75;;;18.50;99.90;;;;;;4952700;28;20062;-50
2022/08/18 05:15:56;;;;;;;22.90;20.85;;;18.40;99.90;;;;;;4926415;28;20507;-52
2022/08/18 05:18:25;;;;;;;24.45;20.83;;;18.40;99.90;;;;;;4908125;29;20106;-52
2022/08/18 05:20:52;;;;;;;24.55;21.98;;;18.40;99.90;;;;;;4911491;28;20199;-53
2022/08/18 05:23:19;;;;;;;23.15;21.00;;;18.50;99.90;;;;;;4913447;29;20578;-51
2022/08/18 05:25:46;;;;;;;22.90;20.50;;;18.40;99.90;;;;;;4920436;29;20426;-53
2022/08/18 05:28:13;;;;;;;22.88;20.45;;;18.50;99.90;;;;;;4916663;29;20106;-52
2022/08/18 05:30:40;;;;;;;24.85;20.77;;;18.50;99.90;;;;;;4910671;29;20052;-51
2022/08/18 05:33:09;;;;;;;22.65;20.17;;;18.50;99.90;;;;;;4919425;29;20048;-53
2022/08/18 05:35:46;;;;;;;23.05;20.73;;;18.60;99.90;;;;;;4919750;28;20055;-53
2022/08/18 05:38:41;;;;;;;21.52;19.25;;;18.60;99.90;;;;;;4914160;29;20456;-54
2022/08/18 05:41:25;;;;;;;21.25;19.23;;;18.50;99.90;;;;;;4910129;29;20079;-51
2022/08/18 05:43:52;;;;;;;21.30;19.05;;;18.70;99.90;;;;;;4914305;29;20048;-53
2022/08/18 05:46:22;;;;;;;21.52;19.35;;;18.60;99.90;;;;;;4917196;29;20059;-51
2022/08/18 05:48:49;;;;;;;19.55;17.42;;;18.70;99.90;;;;;;4913315;29;20056;-52
2022/08/18 05:51:32;;;;;;;22.52;17.77;;;18.70;99.90;;;;;;4925411;29;20057;-51
2022/08/18 05:56:49;;;;;;;20.63;15.43;;;18.80;99.90;;;;;;4913633;29;19958;-53
2022/08/18 05:59:26;;;;;;;18.27;14.70;;;18.80;99.90;;;;;;4925928;29;20855;-53
2022/08/18 06:02:03;;;;;;;18.13;15.70;;;18.80;99.90;;;;;;4919092;29;20090;-51
2022/08/18 06:04:51;;;;;;;18.67;16.60;;;18.90;99.90;;;;;;4917040;29;20144;-54
2022/08/18 06:07:43;;;;;;;16.67;14.82;;;18.90;99.90;;;;;;4906677;29;20134;-53
2022/08/18 06:10:14;;;;;;;20.42;14.18;;;18.90;99.90;;;;;;4850264;29;20061;-53
2022/08/18 06:12:45;;;;;;;14.80;13.20;;;19.10;99.90;;;;;;4864442;29;20061;-53
2022/08/18 06:15:13;;;;;;;15.27;13.57;;;19.20;99.90;;;;;;4864459;29;20636;-53
2022/08/18 06:18:08;;;;;;;16.60;14.35;;;19.40;99.90;;;;;;4849636;29;20084;-51
2022/08/18 06:21:11;;;;;;;17.80;13.18;;;19.50;99.90;;;;;;4864922;29;20148;-55
2022/08/18 06:23:55;;;;;;;17.10;12.67;;;19.70;99.90;;;;;;4848834;29;20357;-53
2022/08/18 06:26:39;;;;;;;16.90;12.95;;;19.80;99.90;;;;;;4864452;29;20063;-52
2022/08/18 06:29:39;;;;;;;13.77;11.63;;;20.00;99.90;;;;;;4833500;29;20100;-53
2022/08/18 06:32:20;;;;;;;17.08;10.38;;;20.10;99.90;;;;;;4864955;29;20532;-54
2022/08/18 06:35:12;;;;;;;12.68;9.50;;;20.40;99.90;;;;;;4848968;29;20101;-51
2022/08/18 06:40:49;;;;;;;14.45;7.97;;;20.90;99.90;;;;;;4864304;29;20091;-50
2022/08/18 06:43:16;;;;;;;12.43;8.30;;;20.90;99.90;;;;;;4864931;29;20421;-54
2022/08/18 06:45:47;;;;;;;12.38;8.25;;;21.00;99.90;;;;;;4865118;29;20946;-54
2022/08/18 06:48:51;;;;;;;14.40;7.85;;;21.00;99.90;;;;;;4908291;29;20129;-53
2022/08/18 06:51:21;;;;;;;16.95;8.30;;;20.80;99.90;;;;;;4918850;29;20476;-52
2022/08/18 06:53:52;;;;;;;12.05;7.10;;;20.80;99.90;;;;;;4905553;29;20114;-52
2022/08/18 06:56:36;;;;;;;10.85;6.65;;;20.80;99.90;;;;;;4918190;29;20118;-52
2022/08/18 06:59:32;;;;;;;11.05;7.50;;;20.80;99.90;;;;;;4906729;29;20059;-52
2022/08/18 07:02:01;;;;;;;10.52;7.78;;;20.60;99.90;;;;;;4905811;29;20812;-53
2022/08/18 07:04:58;;;;;;;14.68;6.88;;;20.60;99.90;;;;;;4907701;29;20052;-51
2022/08/18 07:07:35;;;;;;;18.35;7.65;;;20.50;99.90;;;;;;4976760;28;20120;-52
2022/08/18 07:10:03;;;;;;;19.88;7.70;;;20.70;99.90;;;;;;4992415;28;20068;-54
2022/08/18 07:12:29;;;;;;;15.52;7.47;;;20.90;99.90;;;;;;4988875;28;20386;-53
2022/08/18 07:15:01;;;;;;;15.70;6.47;;;21.00;99.90;;;;;;4990362;28;20588;-51
2022/08/18 07:17:32;;;;;;;15.57;6.45;;;21.00;99.90;;;;;;4990265;28;20089;-53
2022/08/18 07:20:09;;;;;;;12.95;5.93;;;20.90;99.90;;;;;;4983157;28;20148;-52
2022/08/18 07:23:26;;;;;;;8.40;3.88;;;20.70;99.90;;;;;;4996550;28;20073;-53
2022/08/18 07:26:16;;;;;;;6.25;3.42;;;20.20;99.90;;;;;;4923729;29;20051;-54
2022/08/18 07:28:50;;;;;;;7.18;3.42;;;19.90;99.90;;;;;;4915964;29;20672;-52
2022/08/18 07:31:58;;;;;;;5.22;2.80;;;19.80;99.90;;;;;;4928797;29;20598;-51
2022/08/18 07:34:36;;;;;;;9.43;2.97;;;19.70;99.90;;;;;;4904583;29;20063;-53
2022/08/18 07:37:13;;;;;;;5.97;3.15;;;19.60;99.90;;;;;;4893790;29;20055;-52
2022/08/18 07:40:24;;;;;;;5.90;2.90;;;19.60;99.90;;;;;;4831691;29;20580;-50
2022/08/18 07:43:16;;;;;;;7.72;2.78;;;19.50;99.90;;;;;;4863862;29;20140;-51
2022/08/18 07:45:45;;;;;;;7.25;2.80;;;19.50;99.90;;;;;;4864283;29;20991;-53
2022/08/18 07:48:16;;;;;;;7.70;3.42;;;19.60;99.90;;;;;;4866464;29;20484;-54
2022/08/18 07:51:19;;;;;;;4.15;3.08;;;19.60;99.90;;;;;;4866816;29;20394;-54
2022/08/18 07:54:11;;;;;;;5.13;3.55;;;19.50;99.90;;;;;;4849600;29;20434;-53
2022/08/18 07:56:50;;;;;;;5.68;3.15;;;19.50;99.90;;;;;;4837221;29;20244;-54
2022/08/18 07:59:41;;;;;;;5.93;3.22;;;19.60;99.90;;;;;;4869291;29;20107;-53
2022/08/18 08:02:23;;;;;;;7.93;3.78;;;19.60;99.90;;;;;;4871266;29;20643;-51
2022/08/18 08:04:52;;;;;;;4.28;3.20;;;19.70;99.90;;;;;;4882813;29;20516;-51
2022/08/18 08:07:29;;;;;;;3.45;2.65;;;19.90;99.90;;;;;;4883649;29;20064;-52
2022/08/18 08:10:14;;;;;;;4.97;2.97;;;19.90;99.90;;;;;;4887077;29;20056;-55
2022/08/18 08:13:02;;;;;;;5.35;3.10;;;20.20;99.90;;;;;;4890340;29;20065;-54
2022/08/18 08:16:02;;;;;;;4.38;2.60;;;20.50;99.90;;;;;;4867689;29;20060;-53
2022/08/18 08:18:58;;;;;;;4.15;2.20;;;20.80;99.90;;;;;;4878357;29;20591;-54
2022/08/18 08:21:30;;;;;;;4.38;2.17;;;21.00;99.90;;;;;;4856823;29;20207;-52
2022/08/18 08:24:40;;;;;;;4.40;2.00;;;21.20;99.90;;;;;;4861964;29;20496;-55
2022/08/18 08:27:35;;;;;;;3.35;1.95;;;21.30;99.90;;;;;;4813113;29;20384;-54
2022/08/18 08:30:19;;;;;;;6.30;1.85;;;21.50;99.90;;;;;;4794842;29;20062;-56
2022/08/18 08:33:04;;;;;;;3.20;1.95;;;21.50;99.90;;;;;;4803377;29;20063;-54
2022/08/18 08:36:00;;;;;;;4.90;1.90;;;21.70;99.90;;;;;;4794708;29;20152;-55
2022/08/18 08:38:53;;;;;;;4.38;1.80;;;22.00;99.90;;;;;;4788810;29;20109;-55
2022/08/18 08:41:31;;;;;;;3.42;2.00;;;22.40;99.90;;;;;;4828510;29;20533;-55
2022/08/18 08:44:28;;;;;;;2.20;1.55;;;22.60;99.90;;;;;;4827903;29;20197;-55
2022/08/18 08:47:25;;;;;;;4.53;1.90;;;22.70;99.90;;;;;;4826851;29;20062;-55
2022/08/18 08:49:59;;;;;;;4.45;2.03;;;22.70;99.90;;;;;;4813987;29;20074;-54
2022/08/18 08:52:50;;;;;;;4.95;1.80;;;22.80;99.90;;;;;;4829567;29;20906;-55
2022/08/18 08:55:35;;;;;;;5.03;1.90;;;22.70;99.90;;;;;;4811592;29;20081;-56
2022/08/18 08:58:19;;;;;;;7.00;1.90;;;22.90;99.90;;;;;;4829637;29;20513;-56
2022/08/18 09:00:47;;;;;;;4.32;2.13;;;22.90;99.90;;;;;;4835328;29;20957;-55
2022/08/18 09:03:26;;;;;;;5.82;2.03;;;22.60;99.90;;;;;;4865229;29;20057;-57
2022/08/18 09:06:18;;;;;;;5.65;2.15;;;22.30;99.90;;;;;;4852061;29;20064;-55
2022/08/18 09:09:06;;;;;;;4.10;2.28;;;22.40;99.90;;;;;;4983967;28;20533;-55
2022/08/18 09:12:06;;;;;;;5.45;2.28;;;22.20;99.90;;;;;;4967993;28;20055;-56
2022/08/18 09:14:51;;;;;;;6.18;2.10;;;21.90;99.90;;;;;;4965206;28;20089;-56
2022/08/18 09:17:32;;;;;;;8.35;3.00;;;21.70;99.90;;;;;;4951014;28;20092;-55
2022/08/18 09:20:23;;;;;;;3.90;2.13;;;21.70;99.90;;;;;;4968611;28;20081;-55
2022/08/18 09:23:16;;;;;;;8.73;2.65;;;21.60;99.90;;;;;;4982875;28;20522;-55
2022/08/18 09:25:42;;;;;;;5.33;2.50;;;21.70;99.90;;;;;;4983786;28;20080;-55
2022/08/18 09:28:11;;;;;;;5.75;2.10;;;21.80;99.90;;;;;;4982563;28;20623;-54
2022/08/18 09:31:01;;;;;;;8.07;2.50;;;21.90;99.90;;;;;;4983831;28;20477;-55
2022/08/18 09:33:39;;;;;;;11.25;2.97;;;21.90;99.90;;;;;;4983203;28;20661;-55
2022/08/18 09:36:19;;;;;;;4.75;2.30;;;21.80;99.90;;;;;;4983775;28;20926;-54
2022/08/18 09:41:56;;;;;;;3.83;2.10;;;22.00;99.90;;;;;;4967960;28;20050;-55
2022/08/18 09:44:40;;;;;;;4.25;1.90;;;22.10;99.90;;;;;;4966028;28;20084;-55
2022/08/18 09:47:07;;;;;;;2.83;1.70;;;22.40;99.90;;;;;;4913907;28;20048;-56
2022/08/18 09:49:49;;;;;;;6.07;2.30;;;22.60;99.90;;;;;;4923194;29;20051;-55
2022/08/18 09:52:21;;;;;;;6.55;3.47;;;22.50;99.90;;;;;;4925128;29;20052;-56
2022/08/18 09:54:57;;;;;;;4.57;2.40;;;22.20;99.90;;;;;;4912577;29;20096;-55
2022/08/18 09:57:29;;;;;;;4.93;2.63;;;22.10;99.90;;;;;;4916404;29;20052;-55
2022/08/18 10:00:03;;;;;;;4.22;2.15;;;22.00;99.90;;;;;;4906011;29;20071;-53
2022/08/18 10:02:29;;;;;;;4.93;2.70;;;22.00;99.90;;;;;;4907261;29;20054;-54
2022/08/18 10:05:28;;;;;;;4.72;3.00;;;22.00;99.90;;;;;;4923760;29;20050;-54
2022/08/18 10:08:05;;;;;;;7.70;1.98;;;21.90;99.90;;;;;;4922756;28;20154;-55
2022/08/18 10:10:43;;;;;;;5.00;2.22;;;21.70;99.90;;;;;;4917562;29;20955;-55
2022/08/18 10:13:44;;;;;;;3.78;2.15;;;21.90;99.90;;;;;;4912552;28;20051;-54
2022/08/18 10:16:17;;;;;;;5.88;2.17;;;21.90;99.90;;;;;;4909381;29;20052;-55
2022/08/18 10:19:06;;;;;;;3.38;1.90;;;22.20;99.90;;;;;;4916995;29;20047;-55
2022/08/18 10:22:07;;;;;;;5.93;2.10;;;22.30;99.90;;;;;;4913351;29;20391;-55
2022/08/18 10:24:39;;;;;;;3.72;2.45;;;22.70;99.90;;;;;;4950769;28;20070;-55
2022/08/18 10:27:12;;;;;;;5.05;2.17;;;22.60;99.90;;;;;;4944431;28;20058;-54
2022/08/18 10:29:45;;;;;;;6.22;2.25;;;22.50;99.90;;;;;;4964895;28;20421;-55
2022/08/18 10:32:12;;;;;;;4.28;2.10;;;22.70;99.90;;;;;;4962010;28;20058;-56
2022/08/18 10:34:42;;;;;;;4.63;2.35;;;22.60;99.90;;;;;;4981864;28;20480;-55
2022/08/18 10:37:20;;;;;;;3.80;2.25;;;22.50;99.90;;;;;;4963829;28;20510;-57
2022/08/18 10:39:47;;;;;;;6.82;2.88;;;22.40;99.90;;;;;;4940879;28;20146;-56
2022/08/18 10:42:38;;;;;;;4.35;2.20;;;22.60;99.90;;;;;;4943330;28;20055;-54
2022/08/18 10:45:18;;;;;;;8.02;3.00;;;23.00;99.90;;;;;;4956091;28;20126;-53
2022/08/18 10:48:03;;;;;;;5.57;2.20;;;23.10;99.90;;;;;;4953320;28;20573;-55
2022/08/18 10:50:50;;;;;;;4.15;2.25;;;23.10;99.90;;;;;;4945571;28;20090;-55
2022/08/18 10:53:21;;;;;;;5.72;2.58;;;23.00;99.90;;;;;;4961746;28;20151;-55
2022/08/18 10:56:00;;;;;;;5.22;2.50;;;23.20;99.90;;;;;;4960831;28;20145;-56
2022/08/18 10:58:44;;;;;;;4.32;2.28;;;23.70;99.90;;;;;;4957833;28;20062;-55
2022/08/18 11:01:41;;;;;;;6.15;2.40;;;23.70;99.90;;;;;;4912579;29;20114;-57
2022/08/18 11:04:11;;;;;;;3.60;2.20;;;23.80;99.90;;;;;;4922629;29;20062;-57
2022/08/18 11:06:47;;;;;;;6.00;2.35;;;23.90;99.90;;;;;;4917991;29;20518;-56
2022/08/18 11:09:26;;;;;;;4.60;2.40;;;24.20;99.90;;;;;;4909266;28;20056;-55
2022/08/18 11:11:55;;;;;;;4.10;2.50;;;24.40;99.90;;;;;;4918702;29;20075;-56
2022/08/18 11:14:33;;;;;;;6.85;2.45;;;24.10;99.90;;;;;;4917984;29;20063;-57
2022/08/18 11:17:30;;;;;;;4.00;2.00;;;23.90;99.90;;;;;;4916836;29;20498;-56
2022/08/18 11:19:59;;;;;;;6.10;2.20;;;23.50;99.90;;;;;;4911431;29;20538;-57
2022/08/18 11:22:29;;;;;;;4.20;2.60;;;23.60;99.90;;;;;;4913204;29;20054;-54
2022/08/18 11:25:02;;;;;;;4.10;2.25;;;23.70;99.90;;;;;;4922796;29;20540;-55
2022/08/18 11:27:44;;;;;;;3.63;2.10;;;23.80;99.90;;;;;;4897823;29;20067;-58
2022/08/18 11:30:10;;;;;;;2.72;1.95;;;23.90;99.90;;;;;;4915317;29;20518;-56
2022/08/18 11:32:39;;;;;;;4.25;2.40;;;24.00;99.90;;;;;;4913093;29;20066;-57
2022/08/18 11:35:05;;;;;;;5.03;2.20;;;24.30;99.90;;;;;;4913934;29;20127;-57
2022/08/18 11:37:43;;;;;;;4.28;2.47;;;24.20;99.90;;;;;;4911320;29;20056;-56
2022/08/18 11:40:34;;;;;;;4.32;2.22;;;23.90;99.90;;;;;;4912606;29;20048;-58
2022/08/18 11:43:17;;;;;;;5.60;2.20;;;23.90;99.90;;;;;;4920655;28;20095;-56
2022/08/18 11:45:51;;;;;;;3.88;1.98;;;23.80;99.90;;;;;;4908944;29;20394;-53
2022/08/18 11:48:37;;;;;;;3.53;1.85;;;23.90;99.90;;;;;;4914921;29;20091;-57
2022/08/18 11:51:22;;;;;;;3.67;1.90;;;24.00;99.90;;;;;;4919146;28;20052;-57
2022/08/18 11:53:48;;;;;;;2.33;1.70;;;23.90;99.90;;;;;;4915908;28;20407;-57
2022/08/18 11:56:17;;;;;;;4.00;1.92;;;23.70;99.90;;;;;;4916508;28;20491;-57
2022/08/18 11:58:55;;;;;;;6.28;2.33;;;23.80;99.90;;;;;;4925683;29;20450;-56
2022/08/18 12:01:45;;;;;;;2.83;2.20;;;24.10;99.90;;;;;;4911899;29;20461;-57
2022/08/18 12:04:22;;;;;;;3.20;2.35;;;24.20;99.90;;;;;;4917812;28;20052;-57
2022/08/18 12:06:54;;;;;;;4.82;2.40;;;24.40;99.90;;;;;;4927637;28;20406;-57
2022/08/18 12:09:22;;;;;;;4.38;2.40;;;24.10;99.90;;;;;;4921018;28;20048;-58
2022/08/18 12:11:57;;;;;;;3.63;2.22;;;24.20;99.90;;;;;;4918572;28;20063;-58
2022/08/18 12:14:27;;;;;;;4.47;2.53;;;24.30;99.90;;;;;;4917469;29;21107;-57
2022/08/18 12:16:53;;;;;;;3.47;2.50;;;24.00;99.90;;;;;;4926329;29;20051;-57
2022/08/18 12:19:21;;;;;;;5.05;2.70;;;23.90;99.90;;;;;;4922652;28;20094;-58
2022/08/18 12:21:54;;;;;;;4.93;2.28;;;23.80;99.90;;;;;;4924071;28;20427;-56
2022/08/18 12:24:29;;;;;;;2.92;2.20;;;23.70;99.90;;;;;;4914004;29;20085;-56
2022/08/18 12:26:57;;;;;;;3.45;2.38;;;23.70;99.90;;;;;;4914413;29;20056;-57
2022/08/18 12:29:25;;;;;;;4.95;2.35;;;23.70;99.90;;;;;;4912788;29;20060;-57
2022/08/18 12:31:53;;;;;;;2.63;2.30;;;23.90;99.90;;;;;;4916661;29;20454;-57
2022/08/18 12:34:23;;;;;;;6.15;2.40;;;24.00;99.90;;;;;;4919676;29;20084;-58
2022/08/18 12:36:54;;;;;;;3.70;2.38;;;24.00;99.90;;;;;;4906975;29;20055;-58
2022/08/18 12:39:20;;;;;;;3.15;2.35;;;24.00;99.90;;;;;;4916814;29;20063;-58
2022/08/18 12:41:46;;;;;;;2.97;2.53;;;24.00;99.90;;;;;;4919429;29;20067;-58
2022/08/18 12:44:12;;;;;;;2.78;1.95;;;24.20;99.90;;;;;;4918537;29;20052;-58
2022/08/18 12:46:39;;;;;;;3.67;2.63;;;24.10;99.90;;;;;;4920984;28;20087;-59
2022/08/18 12:49:11;;;;;;;3.28;2.50;;;24.10;99.90;;;;;;4914520;29;20060;-58
2022/08/18 12:51:37;;;;;;;5.22;3.10;;;24.20;99.90;;;;;;4918900;29;20056;-58
2022/08/18 12:54:06;;;;;;;5.55;2.42;;;24.20;99.90;;;;;;4925557;29;20055;-56
2022/08/18 12:56:32;;;;;;;4.93;2.53;;;24.40;99.90;;;;;;4925346;29;20131;-57
2022/08/18 12:59:04;;;;;;;3.22;2.08;;;24.40;99.90;;;;;;4917247;28;20039;-58
2022/08/18 13:01:31;;;;;;;3.88;2.28;;;24.60;99.90;;;;;;4914639;29;20044;-57
2022/08/18 13:03:58;;;;;;;3.92;2.60;;;24.50;99.90;;;;;;4922260;29;20055;-57
2022/08/18 13:06:24;;;;;;;5.40;2.40;;;24.20;99.90;;;;;;4920842;28;20114;-58
2022/08/18 13:08:54;;;;;;;4.55;2.50;;;24.10;99.90;;;;;;4916831;29;20063;-58
2022/08/18 13:11:21;;;;;;;3.90;2.38;;;24.00;99.90;;;;;;4924198;29;20058;-57
2022/08/18 13:13:49;;;;;;;5.10;2.80;;;24.10;99.90;;;;;;4915365;29;20549;-58
2022/08/18 13:16:16;;;;;;;4.13;1.98;;;24.10;99.90;;;;;;4921516;28;20056;-58
2022/08/18 13:18:42;;;;;;;2.88;2.13;;;24.20;99.90;;;;;;4924821;29;20091;-58
2022/08/18 13:21:11;;;;;;;4.28;2.35;;;24.40;99.90;;;;;;4909901;29;20049;-58
2022/08/18 13:23:38;;;;;;;2.67;2.28;;;24.50;99.90;;;;;;4918534;29;20048;-57
2022/08/18 13:26:08;;;;;;;2.50;2.28;;;24.60;99.90;;;;;;4922859;29;20063;-58
2022/08/18 13:28:35;;;;;;;4.50;2.42;;;24.70;99.90;;;;;;4912127;29;20078;-58
2022/08/18 13:31:03;;;;;;;3.40;2.50;;;24.60;99.90;;;;;;4907496;29;20129;-57
2022/08/18 13:33:31;;;;;;;2.75;2.20;;;24.60;99.90;;;;;;4905236;29;20156;-58
2022/08/18 13:35:58;;;;;;;3.13;2.25;;;24.70;99.90;;;;;;4917418;29;20095;-58
2022/08/18 13:38:25;;;;;;;6.82;2.70;;;24.80;99.90;;;;;;4913942;28;20047;-58